createdAt,value
2018-09-02T00:02:32.872Z,5.53
2018-09-02T00:06:06.453Z,5.13
2018-09-02T00:09:39.667Z,4.70
2018-09-02T00:13:12.876Z,5.13
2018-09-02T00:16:46.113Z,5.33
2018-09-02T00:20:19.404Z,4.77
2018-09-02T00:23:52.868Z,5.23
2018-09-02T00:27:26.232Z,4.27
2018-09-02T00:30:59.450Z,5.70
2018-09-02T00:34:32.675Z,6.10
2018-09-02T00:38:05.900Z,5.23
2018-09-02T00:41:39.975Z,5.73
2018-09-02T00:45:13.205Z,5.33
2018-09-02T00:48:46.427Z,5.33
2018-09-02T00:52:20.566Z,6.20
2018-09-02T00:55:53.861Z,5.13
2018-09-02T00:59:27.085Z,5.07
2018-09-02T01:03:00.309Z,5.37
2018-09-02T01:06:33.539Z,5.53
2018-09-02T01:10:06.752Z,5.47
2018-09-02T01:13:39.962Z,6.03
2018-09-02T01:17:13.388Z,5.37
2018-09-02T01:20:46.621Z,5.20
2018-09-02T01:24:19.853Z,5.87
2018-09-02T01:27:53.079Z,5.80
2018-09-02T01:31:26.311Z,5.27
2018-09-02T01:34:59.513Z,5.90
2018-09-02T01:38:32.720Z,5.93
2018-09-02T01:42:06.068Z,6.67
2018-09-02T01:45:39.278Z,5.77
2018-09-02T01:49:12.500Z,5.93
2018-09-02T01:52:45.700Z,6.07
2018-09-02T01:56:18.944Z,6.37
2018-09-02T01:59:52.160Z,5.47
2018-09-02T02:03:25.371Z,5.67
2018-09-02T02:06:58.600Z,5.40
2018-09-02T02:10:31.836Z,6.50
2018-09-02T02:14:05.039Z,5.87
2018-09-02T02:17:38.340Z,5.90
2018-09-02T02:21:11.548Z,5.50
2018-09-02T02:24:44.781Z,5.87
2018-09-02T02:28:18.004Z,6.20
2018-09-02T02:31:51.226Z,7.10
2018-09-02T02:35:24.453Z,6.27
2018-09-02T02:38:57.667Z,6.77
2018-09-02T02:42:30.887Z,6.67
2018-09-02T02:46:04.113Z,6.00
2018-09-02T02:49:37.328Z,6.13
2018-09-02T02:53:10.540Z,6.63
2018-09-02T02:56:43.755Z,15.10
2018-09-02T03:00:17.036Z,6.80
2018-09-02T03:03:50.235Z,6.60
2018-09-02T03:07:23.452Z,6.53
2018-09-02T03:10:56.653Z,6.37
2018-09-02T03:14:29.880Z,6.97
2018-09-02T03:18:03.092Z,6.80
2018-09-02T03:21:36.304Z,7.13
2018-09-02T03:25:09.544Z,7.37
2018-09-02T03:28:42.759Z,7.33
2018-09-02T03:32:15.966Z,6.93
2018-09-02T03:35:49.204Z,7.53
2018-09-02T03:39:22.407Z,8.07
2018-09-02T03:42:55.639Z,8.20
2018-09-02T03:46:28.867Z,7.40
2018-09-02T03:50:02.099Z,8.60
2018-09-02T03:53:35.307Z,9.00
2018-09-02T03:57:08.524Z,9.10
2018-09-02T04:00:41.734Z,8.70
2018-09-02T04:04:14.960Z,8.60
2018-09-02T04:07:48.164Z,8.90
2018-09-02T04:11:21.431Z,8.77
2018-09-02T04:14:54.621Z,7.67
2018-09-02T04:18:27.840Z,8.30
2018-09-02T04:22:01.065Z,8.93
2018-09-02T04:25:34.709Z,8.87
2018-09-02T04:29:07.956Z,9.70
2018-09-02T04:32:41.179Z,9.53
2018-09-02T04:36:14.392Z,8.83
2018-09-02T04:39:47.608Z,9.10
2018-09-02T04:43:20.824Z,8.83
2018-09-02T04:46:54.048Z,11.03
2018-09-02T04:50:27.277Z,9.60
2018-09-02T04:54:00.520Z,10.13
2018-09-02T04:57:33.956Z,9.83
2018-09-02T05:01:07.212Z,11.63
2018-09-02T05:04:40.434Z,10.87
2018-09-02T05:08:13.657Z,11.30
2018-09-02T05:11:46.875Z,10.97
2018-09-02T05:15:20.112Z,11.90
2018-09-02T05:18:53.353Z,12.30
2018-09-02T05:22:26.591Z,12.67
2018-09-02T05:25:59.815Z,12.67
2018-09-02T05:29:33.051Z,12.57
2018-09-02T05:33:06.279Z,10.60
2018-09-02T05:36:39.492Z,12.60
2018-09-02T05:40:12.716Z,10.63
2018-09-02T05:43:45.972Z,11.30
2018-09-02T05:47:19.186Z,11.67
2018-09-02T05:50:52.413Z,13.00
2018-09-02T05:54:25.644Z,11.97
2018-09-02T05:57:58.865Z,12.23
2018-09-02T06:01:32.125Z,10.87
2018-09-02T06:05:05.363Z,10.53
2018-09-02T06:08:38.590Z,11.47
2018-09-02T06:12:11.832Z,11.70
2018-09-02T06:15:45.064Z,12.73
2018-09-02T06:19:18.293Z,9.97
2018-09-02T06:22:51.510Z,10.63
2018-09-02T06:26:24.951Z,9.93
2018-09-02T06:29:58.227Z,10.00
2018-09-02T06:33:31.464Z,11.70
2018-09-02T06:37:04.691Z,11.00
2018-09-02T06:40:37.910Z,10.97
2018-09-02T06:44:11.353Z,11.17
2018-09-02T06:47:44.608Z,11.70
2018-09-02T06:51:17.825Z,8.40
2018-09-02T06:54:51.035Z,10.13
2018-09-02T06:58:24.324Z,9.47
2018-09-02T07:01:57.576Z,9.60
2018-09-02T07:05:33.481Z,8.53
2018-09-02T07:09:06.699Z,9.60
2018-09-02T07:12:39.940Z,11.57
2018-09-02T07:16:13.248Z,9.30
2018-09-02T07:19:46.473Z,10.30
2018-09-02T07:23:19.690Z,8.57
2018-09-02T07:26:52.913Z,8.07
2018-09-02T07:30:26.140Z,10.30
2018-09-02T07:33:59.404Z,9.90
2018-09-02T07:37:32.644Z,9.27
2018-09-02T07:41:05.858Z,8.60
2018-09-02T07:44:39.329Z,7.43
2018-09-02T07:48:12.548Z,9.07
2018-09-02T07:51:45.773Z,7.43
2018-09-02T07:55:18.995Z,9.00
2018-09-02T07:58:52.223Z,8.80
2018-09-02T08:02:25.446Z,8.90
2018-09-02T08:05:58.667Z,8.07
2018-09-02T08:09:31.909Z,9.13
2018-09-02T08:13:05.133Z,7.43
2018-09-02T08:16:38.348Z,8.87
2018-09-02T08:20:11.561Z,9.07
2018-09-02T08:23:45.136Z,9.37
2018-09-02T08:27:18.363Z,8.80
2018-09-02T08:30:51.570Z,8.40
2018-09-02T08:34:24.795Z,8.07
2018-09-02T08:37:58.035Z,8.73
2018-09-02T08:41:31.261Z,9.17
2018-09-02T08:45:04.824Z,7.80
2018-09-02T08:48:38.066Z,8.93
2018-09-02T08:52:11.315Z,6.93
2018-09-02T08:55:44.561Z,7.40
2018-09-02T08:59:17.780Z,6.10
2018-09-02T09:02:51.852Z,6.50
2018-09-02T09:06:25.663Z,7.40
2018-09-02T09:09:58.897Z,6.57
2018-09-02T09:13:32.153Z,6.47
2018-09-02T09:17:05.612Z,5.30
2018-09-02T09:20:38.846Z,5.57
2018-09-02T09:24:12.145Z,5.20
2018-09-02T09:27:45.299Z,5.93
2018-09-02T09:31:18.529Z,5.60
2018-09-02T09:34:51.772Z,4.93
2018-09-02T09:38:24.995Z,5.37
2018-09-02T09:41:58.235Z,4.40
2018-09-02T09:45:31.712Z,5.20
2018-09-02T09:49:05.160Z,5.80
2018-09-02T09:52:38.394Z,5.33
2018-09-02T09:56:11.609Z,12.10
2018-09-02T09:59:44.848Z,8.13
2018-09-02T10:03:18.579Z,5.07
2018-09-02T10:06:51.917Z,5.00
2018-09-02T10:10:25.158Z,4.80
2018-09-02T10:13:58.383Z,4.83
2018-09-02T10:17:31.634Z,5.30
2018-09-02T10:21:04.916Z,4.93
2018-09-02T10:24:38.144Z,5.33
2018-09-02T10:28:11.372Z,5.67
2018-09-02T10:31:44.598Z,5.30
2018-09-02T10:35:18.072Z,4.30
2018-09-02T10:38:51.305Z,5.40
2018-09-02T10:42:24.549Z,4.90
2018-09-02T10:45:57.769Z,5.10
2018-09-02T10:49:31.021Z,6.10
2018-09-02T10:53:04.447Z,5.80
2018-09-02T10:56:37.669Z,5.47
2018-09-02T11:00:11.291Z,5.90
2018-09-02T11:03:44.503Z,5.93
2018-09-02T11:07:17.736Z,5.83
2018-09-02T11:10:51.002Z,4.90
2018-09-02T11:14:24.253Z,5.13
2018-09-02T11:17:57.482Z,5.50
2018-09-02T11:21:30.717Z,5.17
2018-09-02T11:25:03.944Z,5.30
2018-09-02T11:28:37.184Z,4.70
2018-09-02T11:32:10.401Z,5.03
2018-09-02T11:35:43.632Z,4.10
2018-09-02T11:39:16.881Z,4.60
2018-09-02T11:42:50.102Z,4.80
2018-09-02T11:46:23.353Z,5.10
2018-09-02T11:49:56.555Z,4.70
2018-09-02T11:53:29.839Z,4.43
2018-09-02T11:57:03.048Z,5.10
2018-09-02T12:00:36.293Z,5.27
2018-09-02T12:04:09.514Z,5.30
2018-09-02T12:07:42.735Z,5.47
2018-09-02T12:11:15.959Z,4.67
2018-09-02T12:14:49.170Z,4.47
2018-09-02T12:18:22.395Z,5.03
2018-09-02T12:21:55.619Z,5.20
2018-09-02T12:25:28.843Z,5.53
2018-09-02T12:29:02.068Z,6.07
2018-09-02T12:32:35.311Z,5.07
2018-09-02T12:36:08.995Z,5.10
2018-09-02T12:39:42.239Z,6.03
2018-09-02T12:43:15.490Z,4.60
2018-09-02T12:46:48.719Z,5.00
2018-09-02T12:50:21.978Z,4.80
2018-09-02T12:53:55.187Z,6.00
2018-09-02T12:57:28.420Z,5.70
2018-09-02T13:01:01.647Z,5.47
2018-09-02T13:04:34.858Z,6.20
2018-09-02T13:08:08.076Z,6.30
2018-09-02T13:11:41.340Z,7.50
2018-09-02T13:15:14.642Z,6.50
2018-09-02T13:18:47.849Z,5.37
2018-09-02T13:22:21.041Z,6.90
2018-09-02T13:25:55.105Z,7.07
2018-09-02T13:29:28.719Z,6.53
2018-09-02T13:33:01.923Z,7.67
2018-09-02T13:36:35.157Z,6.80
2018-09-02T13:40:08.761Z,8.13
2018-09-02T13:43:41.947Z,7.83
2018-09-02T13:47:15.204Z,7.43
2018-09-02T13:50:48.429Z,7.97
2018-09-02T13:54:21.655Z,7.43
2018-09-02T13:57:54.884Z,7.70
2018-09-02T14:01:28.125Z,7.07
2018-09-02T14:05:01.339Z,8.37
2018-09-02T14:08:34.619Z,8.43
2018-09-02T14:12:07.964Z,7.40
2018-09-02T14:15:41.163Z,7.10
2018-09-02T14:19:14.443Z,8.13
2018-09-02T14:22:47.737Z,8.07
2018-09-02T14:26:20.980Z,7.20
2018-09-02T14:29:54.208Z,7.73
2018-09-02T14:33:27.432Z,7.90
2018-09-02T14:37:00.657Z,6.90
2018-09-02T14:40:33.879Z,6.13
2018-09-02T14:44:07.176Z,6.17
2018-09-02T14:47:40.417Z,6.83
2018-09-02T14:51:13.644Z,7.77
2018-09-02T14:54:46.886Z,6.73
2018-09-02T14:58:20.128Z,6.70
2018-09-02T15:01:53.362Z,5.60
2018-09-02T15:05:26.594Z,7.93
2018-09-02T15:08:59.815Z,7.20
2018-09-02T15:12:33.040Z,7.57
2018-09-02T15:16:06.310Z,8.47
2018-09-02T15:19:39.529Z,9.87
2018-09-02T15:23:12.749Z,9.17
2018-09-02T15:26:45.998Z,10.40
2018-09-02T15:30:19.241Z,10.10
2018-09-02T15:33:52.467Z,9.30
2018-09-02T15:37:25.698Z,9.07
2018-09-02T15:40:58.928Z,7.77
2018-09-02T15:44:32.145Z,8.67
2018-09-02T15:48:05.392Z,8.83
2018-09-02T15:51:38.656Z,8.50
2018-09-02T15:55:11.882Z,7.40
2018-09-02T15:58:45.108Z,6.47
2018-09-02T16:02:18.325Z,7.37
2018-09-02T16:05:51.554Z,7.03
2018-09-02T16:09:24.785Z,6.20
2018-09-02T16:12:57.998Z,6.57
2018-09-02T16:16:31.220Z,7.07
2018-09-02T16:20:04.487Z,5.70
2018-09-02T16:23:37.708Z,6.40
2018-09-02T16:27:10.932Z,5.77
2018-09-02T16:30:44.160Z,6.70
2018-09-02T16:34:17.396Z,7.50
2018-09-02T16:37:50.612Z,7.83
2018-09-02T16:41:23.843Z,7.17
2018-09-02T16:44:57.069Z,8.53
2018-09-02T16:48:30.301Z,8.20
2018-09-02T16:52:03.531Z,8.70
2018-09-02T16:55:36.732Z,7.50
2018-09-02T16:59:10.009Z,8.13
2018-09-02T17:02:43.236Z,8.40
2018-09-02T17:06:16.483Z,10.57
2018-09-02T17:09:49.690Z,9.23
2018-09-02T17:13:23.181Z,9.20
2018-09-02T17:16:56.472Z,9.67
2018-09-02T17:20:33.260Z,9.70
2018-09-02T17:24:06.653Z,11.40
2018-09-02T17:27:39.872Z,10.70
2018-09-02T17:31:13.113Z,11.33
2018-09-02T17:34:46.410Z,10.97
2018-09-02T17:38:19.702Z,12.47
2018-09-02T17:41:52.883Z,12.20
2018-09-02T17:45:26.135Z,11.57
2018-09-02T17:48:59.373Z,12.53
2018-09-02T17:52:32.652Z,12.60
2018-09-02T17:56:06.216Z,10.67
2018-09-02T17:59:39.545Z,12.77
2018-09-02T18:03:12.811Z,13.33
2018-09-02T18:06:46.044Z,12.20
2018-09-02T18:10:19.301Z,12.53
2018-09-02T18:13:52.515Z,13.27
2018-09-02T18:17:25.736Z,14.07
2018-09-02T18:20:59.007Z,15.37
2018-09-02T18:24:32.296Z,15.90
2018-09-02T18:28:07.632Z,15.20
2018-09-02T18:31:40.920Z,16.50
2018-09-02T18:35:14.158Z,14.97
2018-09-02T18:38:47.612Z,13.60
2018-09-02T18:42:20.892Z,14.90
2018-09-02T18:45:54.125Z,13.50
2018-09-02T18:49:27.364Z,14.33
2018-09-02T18:53:00.611Z,14.17
2018-09-02T18:56:33.872Z,14.57
2018-09-02T19:00:07.160Z,15.00
2018-09-02T19:03:40.832Z,14.90
2018-09-02T19:07:14.055Z,17.37
2018-09-02T19:10:47.547Z,15.90
2018-09-02T19:14:20.775Z,15.93
2018-09-02T19:17:54.006Z,18.13
2018-09-02T19:21:27.246Z,18.17
2018-09-02T19:25:00.495Z,18.00
2018-09-02T19:28:33.751Z,17.00
2018-09-02T19:32:06.975Z,18.10
2018-09-02T19:35:40.199Z,19.10
2018-09-02T19:39:13.520Z,16.87
2018-09-02T19:42:46.736Z,18.83
2018-09-02T19:46:19.995Z,19.00
2018-09-02T19:49:53.304Z,17.03
2018-09-02T19:53:26.540Z,16.80
2018-09-02T19:56:59.765Z,16.57
2018-09-02T20:00:33.333Z,19.10
2018-09-02T20:04:06.977Z,18.67
2018-09-02T20:07:40.217Z,18.20
2018-09-02T20:11:13.513Z,17.90
2018-09-02T20:14:46.743Z,19.27
2018-09-02T20:18:20.007Z,17.67
2018-09-02T20:21:53.247Z,17.23
2018-09-02T20:25:26.485Z,19.17
2018-09-02T20:28:59.714Z,19.40
2018-09-02T20:32:32.968Z,20.10
2018-09-02T20:36:06.088Z,19.43
2018-09-02T20:39:39.303Z,19.50
2018-09-02T20:43:12.528Z,18.30
2018-09-02T20:46:45.731Z,18.73
2018-09-02T20:50:18.998Z,21.13
2018-09-02T20:53:52.207Z,21.80
2018-09-02T20:57:25.436Z,20.17
2018-09-02T21:00:58.659Z,21.77
2018-09-02T21:04:31.873Z,20.93
2018-09-02T21:08:05.106Z,21.40
2018-09-02T21:11:38.389Z,22.40
2018-09-02T21:15:11.622Z,21.43
2018-09-02T21:18:44.855Z,23.00
2018-09-02T21:22:18.065Z,25.00
2018-09-02T21:25:51.289Z,21.40
2018-09-02T21:29:24.512Z,20.50
2018-09-02T21:32:57.740Z,20.60
2018-09-02T21:36:30.974Z,22.30
2018-09-02T21:40:04.200Z,22.97
2018-09-02T21:43:37.421Z,19.37
2018-09-02T21:47:10.638Z,19.93
2018-09-02T21:50:43.881Z,19.13
2018-09-02T21:54:17.087Z,23.30
2018-09-02T21:57:50.315Z,23.27
2018-09-02T22:01:23.583Z,23.57
2018-09-02T22:04:56.813Z,19.03
2018-09-02T22:08:30.021Z,20.40
2018-09-02T22:12:03.248Z,21.70
2018-09-02T22:15:36.460Z,20.10
2018-09-02T22:19:09.696Z,20.47
2018-09-02T22:22:42.919Z,17.83
2018-09-02T22:26:16.141Z,18.63
2018-09-02T22:29:49.373Z,20.20
2018-09-02T22:33:22.615Z,18.80
2018-09-02T22:36:55.825Z,20.97
2018-09-02T22:40:29.057Z,21.53
2018-09-02T22:44:02.276Z,20.47
2018-09-02T22:47:35.516Z,22.23
2018-09-02T22:51:08.722Z,21.10
2018-09-02T22:54:41.952Z,21.17
2018-09-02T22:58:15.186Z,19.10
2018-09-02T23:01:48.407Z,19.10
2018-09-02T23:05:21.636Z,20.40
2018-09-02T23:08:54.864Z,19.40
2018-09-02T23:12:28.156Z,22.90
2018-09-02T23:16:01.375Z,20.70
2018-09-02T23:19:34.663Z,18.40
2018-09-02T23:23:07.826Z,21.30
2018-09-02T23:26:41.048Z,20.93
2018-09-02T23:30:14.278Z,21.67
2018-09-02T23:33:47.515Z,19.60
2018-09-02T23:37:20.757Z,21.63
2018-09-02T23:40:53.970Z,21.73
2018-09-02T23:44:27.201Z,22.63
2018-09-02T23:48:00.416Z,22.30
2018-09-02T23:51:33.638Z,25.20
2018-09-02T23:55:06.888Z,23.10
2018-09-02T23:58:40.087Z,20.67
